createdAt,value
2018-08-28T00:00:15.304Z,83.60
2018-08-28T00:03:13.388Z,84.00
2018-08-28T00:06:12.338Z,84.00
2018-08-28T00:09:10.409Z,84.00
2018-08-28T00:12:08.470Z,84.10
2018-08-28T00:15:06.733Z,84.30
2018-08-28T00:18:04.792Z,84.20
2018-08-28T00:21:02.755Z,84.10
2018-08-28T00:24:02.677Z,84.20
2018-08-28T00:27:00.821Z,83.80
2018-08-28T00:29:58.870Z,83.90
2018-08-28T00:32:58.083Z,83.90
2018-08-28T00:35:56.232Z,84.50
2018-08-28T00:38:54.284Z,83.10
2018-08-28T00:41:52.247Z,82.90
2018-08-28T00:44:50.612Z,82.70
2018-08-28T00:47:48.975Z,82.70
2018-08-28T00:50:46.936Z,82.70
2018-08-28T00:53:45.004Z,82.40
2018-08-28T00:56:43.060Z,82.50
2018-08-28T00:59:41.026Z,82.50
2018-08-28T01:02:39.173Z,83.30
2018-08-28T01:05:37.123Z,83.20
2018-08-28T01:08:35.099Z,83.50
2018-08-28T01:11:33.996Z,84.40
2018-08-28T01:14:32.191Z,83.60
2018-08-28T01:17:30.183Z,83.50
2018-08-28T01:20:28.048Z,83.60
2018-08-28T01:23:26.212Z,83.50
2018-08-28T01:26:25.200Z,85.10
2018-08-28T01:29:24.297Z,84.50
2018-08-28T01:32:22.548Z,84.60
2018-08-28T01:35:20.718Z,85.00
2018-08-28T01:38:18.871Z,85.40
2018-08-28T01:41:17.043Z,86.90
2018-08-28T01:44:14.988Z,87.20
2018-08-28T01:47:13.046Z,88.20
2018-08-28T01:50:11.086Z,87.80
2018-08-28T01:53:09.272Z,88.10
2018-08-28T01:56:07.324Z,87.70
2018-08-28T01:59:05.595Z,88.00
2018-08-28T02:02:03.764Z,88.60
2018-08-28T02:05:02.129Z,89.20
2018-08-28T02:08:01.108Z,88.70
2018-08-28T02:10:59.376Z,89.80
2018-08-28T02:13:57.539Z,89.50
2018-08-28T02:16:55.422Z,90.20
2018-08-28T02:19:53.510Z,90.10
2018-08-28T02:22:51.832Z,90.20
2018-08-28T02:25:49.898Z,90.40
2018-08-28T02:28:47.925Z,90.30
2018-08-28T02:31:46.096Z,90.30
2018-08-28T02:34:43.956Z,90.30
2018-08-28T02:37:42.234Z,90.40
2018-08-28T02:40:40.283Z,90.50
2018-08-28T02:43:38.370Z,90.60
2018-08-28T02:46:36.667Z,90.60
2018-08-28T02:49:34.572Z,90.40
2018-08-28T02:52:33.035Z,90.30
2018-08-28T02:55:31.100Z,90.40
2018-08-28T02:58:29.158Z,90.40
2018-08-28T03:01:27.219Z,90.50
2018-08-28T03:04:26.097Z,90.40
2018-08-28T03:07:23.955Z,90.40
2018-08-28T03:10:22.319Z,90.40
2018-08-28T03:13:20.379Z,90.60
2018-08-28T03:16:18.362Z,90.50
2018-08-28T03:19:16.327Z,90.70
2018-08-28T03:22:15.640Z,90.70
2018-08-28T03:25:13.847Z,90.80
2018-08-28T03:28:12.245Z,90.80
2018-08-28T03:31:10.372Z,91.00
2018-08-28T03:34:09.148Z,91.00
2018-08-28T03:38:10.360Z,91.10
2018-08-28T03:41:09.538Z,91.10
2018-08-28T03:44:07.903Z,91.10
2018-08-28T03:47:06.072Z,91.30
2018-08-28T03:50:04.164Z,91.60
2018-08-28T03:53:02.270Z,91.20
2018-08-28T03:56:00.660Z,91.00
2018-08-28T03:58:58.719Z,90.90
2018-08-28T04:01:56.877Z,90.90
2018-08-28T04:04:55.096Z,90.90
2018-08-28T04:07:53.250Z,91.20
2018-08-28T04:10:51.383Z,91.00
2018-08-28T04:13:49.635Z,91.00
2018-08-28T04:16:47.698Z,91.10
2018-08-28T04:19:47.193Z,91.40
2018-08-28T04:22:45.353Z,91.40
2018-08-28T04:25:43.617Z,91.40
2018-08-28T04:28:41.691Z,91.40
2018-08-28T04:31:39.739Z,91.30
2018-08-28T04:34:37.879Z,91.50
2018-08-28T04:37:37.069Z,91.60
2018-08-28T04:40:36.389Z,91.70
2018-08-28T04:43:34.554Z,91.60
2018-08-28T04:46:32.628Z,91.50
2018-08-28T04:49:30.674Z,91.40
2018-08-28T04:52:30.583Z,91.50
2018-08-28T04:55:28.720Z,91.70
2018-08-28T04:58:26.789Z,91.90
2018-08-28T05:01:24.945Z,91.80
2018-08-28T05:04:25.041Z,91.70
2018-08-28T05:07:23.133Z,91.60
2018-08-28T05:10:21.063Z,91.90
2018-08-28T05:13:19.127Z,91.80
2018-08-28T05:16:18.017Z,92.10
2018-08-28T05:19:16.099Z,92.00
2018-08-28T05:25:00.576Z,92.10
2018-08-28T05:27:58.461Z,92.70
2018-08-28T05:30:56.227Z,92.40
2018-08-28T05:33:54.547Z,92.20
2018-08-28T05:36:52.451Z,92.40
2018-08-28T05:39:50.443Z,92.30
2018-08-28T05:42:49.801Z,92.00
2018-08-28T05:45:47.867Z,92.20
2018-08-28T05:48:45.927Z,92.10
2018-08-28T05:51:44.098Z,92.40
2018-08-28T05:54:42.150Z,92.60
2018-08-28T05:57:40.335Z,92.40
2018-08-28T06:00:38.302Z,92.40
2018-08-28T06:03:36.298Z,92.10
2018-08-28T06:06:34.283Z,91.80
2018-08-28T06:09:32.147Z,91.80
2018-08-28T06:12:30.120Z,91.70
2018-08-28T06:15:28.273Z,91.50
2018-08-28T06:18:26.343Z,91.20
2018-08-28T06:21:25.109Z,91.40
2018-08-28T06:24:23.165Z,91.30
2018-08-28T06:27:21.156Z,91.40
2018-08-28T06:30:19.398Z,91.30
2018-08-28T06:33:17.485Z,91.40
2018-08-28T06:36:15.367Z,91.60
2018-08-28T06:39:13.367Z,91.60
2018-08-28T06:42:11.644Z,91.20
2018-08-28T06:45:09.692Z,91.00
2018-08-28T06:48:07.757Z,90.90
2018-08-28T06:51:06.736Z,91.00
2018-08-28T06:54:04.804Z,90.70
2018-08-28T06:57:02.768Z,90.30
2018-08-28T07:00:00.919Z,90.10
2018-08-28T07:02:59.059Z,89.90
2018-08-28T07:05:58.015Z,89.50
2018-08-28T07:08:56.016Z,89.20
2018-08-28T07:11:53.983Z,88.40
2018-08-28T07:14:52.038Z,88.20
2018-08-28T07:17:50.302Z,87.50
2018-08-28T07:20:48.236Z,87.00
2018-08-28T07:23:47.134Z,85.90
2018-08-28T07:26:45.398Z,85.60
2018-08-28T07:29:44.529Z,85.30
2018-08-28T07:32:44.847Z,85.00
2018-08-28T07:35:43.855Z,85.80
2018-08-28T07:38:41.749Z,85.80
2018-08-28T07:41:39.886Z,86.00
2018-08-28T07:44:38.065Z,85.60
2018-08-28T07:47:36.124Z,84.80
2018-08-28T07:50:34.201Z,84.70
2018-08-28T07:53:32.340Z,84.80
2018-08-28T07:56:30.410Z,84.60
2018-08-28T07:59:28.341Z,83.70
2018-08-28T08:02:26.431Z,83.10
2018-08-28T08:05:24.740Z,82.80
2018-08-28T08:08:22.825Z,82.30
2018-08-28T08:11:21.995Z,81.40
2018-08-28T08:14:20.992Z,79.90
2018-08-28T08:17:19.846Z,79.50
2018-08-28T08:20:18.977Z,78.70
2018-08-28T08:23:17.023Z,77.90
2018-08-28T08:26:16.012Z,77.50
2018-08-28T08:29:14.915Z,76.30
2018-08-28T08:32:12.910Z,75.60
2018-08-28T08:35:11.134Z,75.00
2018-08-28T08:38:09.164Z,73.60
2018-08-28T08:41:07.240Z,72.90
2018-08-28T08:44:06.152Z,72.40
2018-08-28T08:47:04.082Z,72.50
2018-08-28T08:50:02.175Z,71.10
2018-08-28T08:53:01.222Z,70.90
2018-08-28T08:55:59.076Z,70.20
2018-08-28T08:58:58.312Z,68.10
2018-08-28T09:01:56.404Z,67.40
2018-08-28T09:04:55.407Z,67.10
2018-08-28T09:07:54.615Z,66.00
2018-08-28T09:10:53.887Z,65.80
2018-08-28T09:13:52.056Z,63.70
2018-08-28T09:16:50.767Z,62.50
2018-08-28T09:19:48.883Z,61.40
2018-08-28T09:22:47.054Z,60.70
2018-08-28T09:25:46.177Z,60.00
2018-08-28T09:28:45.325Z,59.20
2018-08-28T09:31:43.466Z,58.50
2018-08-28T09:34:41.317Z,57.40
2018-08-28T09:37:39.417Z,56.80
2018-08-28T09:40:37.650Z,57.00
2018-08-28T09:43:35.726Z,57.10
2018-08-28T09:46:33.887Z,56.60
2018-08-28T09:49:31.949Z,54.80
2018-08-28T09:52:30.004Z,55.10
2018-08-28T09:55:27.998Z,55.20
2018-08-28T09:58:26.227Z,55.60
2018-08-28T10:01:30.328Z,54.40
2018-08-28T10:04:29.440Z,54.20
2018-08-28T10:07:27.396Z,54.00
2018-08-28T10:10:26.334Z,52.60
2018-08-28T10:13:24.398Z,51.90
2018-08-28T10:16:22.466Z,51.30
2018-08-28T10:19:20.832Z,51.70
2018-08-28T10:22:19.723Z,50.90
2018-08-28T10:25:17.583Z,50.80
2018-08-28T10:28:15.715Z,50.50
2018-08-28T10:31:14.009Z,51.00
2018-08-28T10:34:12.028Z,50.90
2018-08-28T10:37:11.035Z,49.40
2018-08-28T10:40:09.004Z,49.50
2018-08-28T10:43:07.159Z,48.30
2018-08-28T10:46:05.185Z,48.00
2018-08-28T10:49:03.234Z,48.20
2018-08-28T10:52:02.252Z,47.90
2018-08-28T10:55:00.312Z,47.50
2018-08-28T10:57:58.445Z,48.20
2018-08-28T11:00:56.336Z,48.10
2018-08-28T11:03:54.330Z,47.60
2018-08-28T11:06:52.281Z,45.80
2018-08-28T11:09:50.317Z,43.10
2018-08-28T11:12:48.672Z,43.00
2018-08-28T11:15:46.744Z,42.50
2018-08-28T11:18:44.811Z,41.40
2018-08-28T11:21:43.303Z,40.90
2018-08-28T11:24:43.677Z,38.90
2018-08-28T11:27:42.188Z,37.70
2018-08-28T11:30:40.116Z,36.80
2018-08-28T11:33:37.963Z,36.50
2018-08-28T11:36:35.937Z,36.30
2018-08-28T11:39:33.924Z,35.30
2018-08-28T11:42:32.365Z,34.10
2018-08-28T11:45:30.642Z,32.10
2018-08-28T11:48:29.684Z,31.20
2018-08-28T11:51:27.774Z,31.10
2018-08-28T11:54:26.020Z,31.50
2018-08-28T11:57:24.104Z,30.80
2018-08-28T12:00:23.261Z,30.10
2018-08-28T12:03:21.437Z,30.10
2018-08-28T12:06:19.496Z,30.00
2018-08-28T12:09:18.368Z,29.70
2018-08-28T12:12:16.847Z,28.50
2018-08-28T12:15:14.920Z,28.20
2018-08-28T12:18:12.963Z,27.90
2018-08-28T12:21:10.865Z,27.70
2018-08-28T12:24:08.985Z,27.90
2018-08-28T12:27:07.066Z,27.30
2018-08-28T12:30:05.317Z,27.00
2018-08-28T12:33:03.403Z,26.70
2018-08-28T12:36:01.645Z,26.90
2018-08-28T12:38:59.623Z,27.00
2018-08-28T12:41:57.854Z,27.00
2018-08-28T12:44:55.827Z,27.10
2018-08-28T12:47:53.763Z,26.10
2018-08-28T12:50:51.931Z,26.20
2018-08-28T12:53:49.997Z,26.70
2018-08-28T12:56:48.055Z,26.20
2018-08-28T12:59:46.177Z,25.70
2018-08-28T13:02:44.380Z,25.40
2018-08-28T13:05:43.500Z,25.60
2018-08-28T13:08:41.508Z,25.70
2018-08-28T13:11:39.603Z,25.10
2018-08-28T13:14:37.765Z,24.40
2018-08-28T13:17:35.928Z,24.60
2018-08-28T13:20:34.788Z,24.40
2018-08-28T13:23:32.868Z,24.40
2018-08-28T13:26:31.217Z,24.50
2018-08-28T13:29:29.112Z,24.30
2018-08-28T13:32:28.264Z,24.30
2018-08-28T13:35:26.219Z,24.30
2018-08-28T13:38:24.276Z,24.00
2018-08-28T13:41:22.341Z,23.70
2018-08-28T13:44:21.640Z,23.80
2018-08-28T13:47:19.624Z,22.80
2018-08-28T13:50:17.693Z,23.00
2018-08-28T13:53:15.691Z,22.80
2018-08-28T13:56:13.757Z,22.00
2018-08-28T13:59:11.766Z,22.70
2018-08-28T14:02:09.988Z,22.50
2018-08-28T14:05:08.172Z,23.10
2018-08-28T14:08:06.230Z,22.90
2018-08-28T14:11:04.273Z,23.30
2018-08-28T14:14:02.598Z,23.40
2018-08-28T14:17:00.487Z,23.70
2018-08-28T14:19:59.684Z,22.90
2018-08-28T14:22:57.642Z,23.20
2018-08-28T14:25:55.832Z,23.20
2018-08-28T14:28:53.766Z,23.60
2018-08-28T14:31:51.816Z,23.00
2018-08-28T14:34:49.987Z,22.20
2018-08-28T14:37:48.233Z,22.70
2018-08-28T14:40:47.254Z,21.90
2018-08-28T14:43:45.176Z,22.20
2018-08-28T14:46:43.348Z,22.70
2018-08-28T14:49:41.348Z,22.10
2018-08-28T14:52:40.424Z,21.70
2018-08-28T14:55:38.549Z,21.90
2018-08-28T14:58:36.623Z,22.20
2018-08-28T15:01:34.689Z,22.80
2018-08-28T15:04:32.637Z,22.80
2018-08-28T15:07:30.635Z,23.20
2018-08-28T15:10:29.786Z,23.60
2018-08-28T15:13:28.641Z,23.90
2018-08-28T15:16:26.813Z,23.30
2018-08-28T15:19:24.867Z,23.20
2018-08-28T15:22:22.931Z,23.10
2018-08-28T15:25:22.032Z,23.00
2018-08-28T15:28:19.852Z,23.30
2018-08-28T15:31:17.772Z,23.30
2018-08-28T15:34:15.890Z,23.20
2018-08-28T15:37:13.953Z,23.20
2018-08-28T15:40:13.041Z,24.30
2018-08-28T15:43:11.107Z,24.00
2018-08-28T15:46:09.267Z,23.50
2018-08-28T15:49:07.302Z,23.30
2018-08-28T15:52:05.235Z,23.20
2018-08-28T15:55:03.141Z,23.50
2018-08-28T15:58:02.034Z,24.00
2018-08-28T16:01:00.060Z,23.90
2018-08-28T16:03:58.246Z,24.00
2018-08-28T16:06:58.379Z,24.40
2018-08-28T16:09:56.505Z,24.20
2018-08-28T16:12:54.476Z,23.70
2018-08-28T16:15:52.517Z,23.50
2018-08-28T16:18:50.814Z,23.60
2018-08-28T16:22:06.252Z,23.10
2018-08-28T16:25:04.319Z,22.90
2018-08-28T16:28:02.667Z,23.80
2018-08-28T16:31:00.854Z,23.60
2018-08-28T16:33:58.878Z,24.10
2018-08-28T16:36:57.916Z,24.20
2018-08-28T16:39:56.219Z,24.30
2018-08-28T16:42:54.396Z,24.30
2018-08-28T16:45:53.600Z,24.30
2018-08-28T16:48:51.678Z,24.10
2018-08-28T16:51:49.828Z,24.20
2018-08-28T16:54:47.816Z,24.50
2018-08-28T16:57:45.932Z,24.60
2018-08-28T17:00:44.157Z,24.90
2018-08-28T17:03:42.097Z,25.50
2018-08-28T17:06:40.221Z,25.50
2018-08-28T17:09:38.277Z,26.10
2018-08-28T17:12:36.244Z,26.50
2018-08-28T17:15:34.435Z,27.00
2018-08-28T17:18:33.405Z,27.40
2018-08-28T17:21:31.567Z,28.00
2018-08-28T17:24:29.652Z,28.60
2018-08-28T17:27:27.681Z,29.10
2018-08-28T17:30:25.731Z,29.40
2018-08-28T17:33:23.768Z,29.90
2018-08-28T17:36:21.760Z,30.70
2018-08-28T17:39:20.511Z,31.10
2018-08-28T17:42:18.591Z,32.10
2018-08-28T17:45:17.392Z,33.20
2018-08-28T17:48:16.897Z,34.10
2018-08-28T17:51:19.787Z,35.00
2018-08-28T17:54:22.245Z,35.80
2018-08-28T17:57:22.955Z,36.60
2018-08-28T18:00:24.801Z,37.20
2018-08-28T18:03:23.232Z,37.80
2018-08-28T18:06:21.241Z,38.30
2018-08-28T18:09:20.355Z,38.90
2018-08-28T18:12:18.462Z,40.20
2018-08-28T18:15:17.228Z,39.90
2018-08-28T18:18:15.367Z,40.80
2018-08-28T18:21:13.426Z,41.30
2018-08-28T18:24:11.602Z,41.70
2018-08-28T18:27:09.634Z,42.40
2018-08-28T18:30:07.835Z,43.00
2018-08-28T18:33:07.090Z,43.20
2018-08-28T18:36:06.275Z,43.80
2018-08-28T18:39:04.060Z,44.10
2018-08-28T18:42:02.096Z,44.40
2018-08-28T18:45:00.179Z,44.70
2018-08-28T18:47:59.325Z,44.90
2018-08-28T18:50:57.462Z,45.20
2018-08-28T18:53:56.408Z,45.50
2018-08-28T18:56:54.589Z,45.80
2018-08-28T18:59:52.815Z,46.10
2018-08-28T19:02:50.937Z,46.10
2018-08-28T19:05:49.812Z,46.50
2018-08-28T19:08:49.089Z,46.80
2018-08-28T19:11:51.004Z,47.10
2018-08-28T19:14:49.165Z,47.30
2018-08-28T19:17:47.318Z,47.60
2018-08-28T19:20:46.430Z,47.60
2018-08-28T19:23:44.387Z,47.90
2018-08-28T19:26:42.402Z,47.90
2018-08-28T19:29:40.427Z,48.10
2018-08-28T19:32:38.431Z,48.80
2018-08-28T19:35:36.506Z,48.60
2018-08-28T19:38:34.695Z,48.90
2018-08-28T19:41:33.006Z,49.00
2018-08-28T19:44:31.912Z,49.10
2018-08-28T19:47:30.072Z,49.80
2018-08-28T19:50:28.115Z,49.40
2018-08-28T19:55:53.820Z,49.80
2018-08-28T19:58:52.112Z,50.20
2018-08-28T20:01:50.213Z,50.40
2018-08-28T20:04:49.065Z,50.70
2018-08-28T20:07:48.065Z,50.90
2018-08-28T20:10:46.099Z,51.10
2018-08-28T20:13:47.022Z,51.50
2018-08-28T20:16:45.112Z,53.80
2018-08-28T20:19:47.511Z,53.10
2018-08-28T20:22:50.783Z,52.80
2018-08-28T20:25:51.497Z,52.80
2018-08-28T20:28:53.751Z,52.60
2018-08-28T20:31:54.325Z,52.90
2018-08-28T20:34:53.474Z,53.10
2018-08-28T20:37:51.556Z,53.70
2018-08-28T20:40:49.550Z,53.40
2018-08-28T20:43:47.800Z,53.40
2018-08-28T20:46:45.657Z,53.70
2018-08-28T20:49:43.608Z,54.00
2018-08-28T20:52:45.483Z,53.70
2018-08-28T20:55:49.598Z,54.30
2018-08-28T20:58:56.660Z,54.60
2018-08-28T21:01:58.424Z,54.80
2018-08-28T21:04:56.536Z,55.40
2018-08-28T21:07:54.591Z,55.10
2018-08-28T21:10:52.652Z,55.30
2018-08-28T21:13:50.880Z,55.90
2018-08-28T21:16:49.892Z,56.00
2018-08-28T21:19:48.410Z,56.80
2018-08-28T21:22:47.211Z,57.50
2018-08-28T21:25:45.170Z,57.50
2018-08-28T21:28:43.064Z,57.40
2018-08-28T21:31:41.978Z,58.20
2018-08-28T21:34:40.173Z,57.60
2018-08-28T21:37:39.348Z,57.90
2018-08-28T21:40:38.358Z,58.20
2018-08-28T21:43:36.536Z,58.20
2018-08-28T21:46:34.544Z,58.60
2018-08-28T21:49:33.550Z,59.40
2018-08-28T21:52:33.607Z,59.40
2018-08-28T21:55:31.924Z,60.70
2018-08-28T21:58:30.116Z,61.30
2018-08-28T22:01:28.110Z,61.00
2018-08-28T22:04:26.195Z,61.80
2018-08-28T22:07:30.203Z,62.20
2018-08-28T22:10:28.368Z,61.70
2018-08-28T22:13:26.314Z,62.90
2018-08-28T22:16:24.323Z,63.00
2018-08-28T22:19:22.362Z,63.20
2018-08-28T22:22:20.556Z,62.90
2018-08-28T22:25:18.592Z,63.30
2018-08-28T22:28:16.653Z,62.90
2018-08-28T22:31:14.951Z,63.00
2018-08-28T22:34:13.177Z,62.80
2018-08-28T22:37:11.409Z,62.90
2018-08-28T22:40:09.393Z,62.80
2018-08-28T22:43:07.321Z,63.70
2018-08-28T22:46:05.415Z,63.90
2018-08-28T22:49:03.464Z,64.20
2018-08-28T22:52:01.538Z,64.50
2018-08-28T22:54:59.893Z,65.10
2018-08-28T22:57:58.052Z,66.20
2018-08-28T23:00:56.223Z,66.00
2018-08-28T23:03:54.583Z,65.50
2018-08-28T23:06:52.765Z,66.00
2018-08-28T23:09:53.889Z,66.00
2018-08-28T23:12:52.047Z,66.20
2018-08-28T23:15:50.140Z,66.40
2018-08-28T23:18:48.424Z,66.70
2018-08-28T23:21:46.511Z,67.30
2018-08-28T23:24:44.481Z,67.40
2018-08-28T23:27:42.544Z,67.90
2018-08-28T23:30:40.494Z,67.90
2018-08-28T23:33:39.588Z,68.40
2018-08-28T23:36:37.853Z,69.00
2018-08-28T23:39:36.020Z,68.80
2018-08-28T23:42:35.215Z,70.10
2018-08-28T23:45:33.482Z,71.00
2018-08-28T23:48:31.531Z,70.90
2018-08-28T23:51:29.702Z,71.00
2018-08-28T23:54:27.747Z,71.10
2018-08-28T23:57:26.131Z,71.90
